BISP weather

Sprengisandur Airport
Sprengisandur, Southern Region, Iceland

Public forecast

Using degrees Celsius for public forecast. Weather courtesy of forecast.io.

METAR (pilot weather report)

Closest report is Akureyri Airport, 61.3 nm (113.6 km) N. Retrieved 2019/04/18 18:00 UTC (7 minutes ago):

BIAR 181800Z 18018KT 9999 FEW050 SCT100 12/01 Q1007

TAF (pilot weather forecast)

Closest forecast is Akureyri Airport, 61.3 nm (113.6 km) N. Retrieved 2019/04/18 18:03 UTC (4 minutes ago):

TAF BIAR 181602Z 1818/1918 19015KT 9999 SCT050 TX13/1915Z TN05/1906Z TEMPO 1818/1918 23020G30KT